sensor_id;sensor_type;location;lat;lon;timestamp;temperature;humidity
66708;DHT22;53622;0.000;0.000;2023-01-08T00:00:08;20.30;61.50
66708;DHT22;53622;0.000;0.000;2023-01-08T00:02:40;20.30;60.70
66708;DHT22;53622;0.000;0.000;2023-01-08T00:05:10;20.30;60.70
66708;DHT22;53622;0.000;0.000;2023-01-08T00:07:39;20.20;60.50
66708;DHT22;53622;0.000;0.000;2023-01-08T00:10:08;20.20;60.50
66708;DHT22;53622;0.000;0.000;2023-01-08T00:12:39;20.20;60.60
66708;DHT22;53622;0.000;0.000;2023-01-08T00:15:09;20.20;60.60
66708;DHT22;53622;0.000;0.000;2023-01-08T00:17:38;20.20;60.60
66708;DHT22;53622;0.000;0.000;2023-01-08T00:20:08;20.20;60.50
66708;DHT22;53622;0.000;0.000;2023-01-08T00:22:37;20.20;60.60
66708;DHT22;53622;0.000;0.000;2023-01-08T00:25:07;20.20;60.50
66708;DHT22;53622;0.000;0.000;2023-01-08T00:27:36;20.10;60.50
66708;DHT22;53622;0.000;0.000;2023-01-08T00:30:08;20.10;60.50
66708;DHT22;53622;0.000;0.000;2023-01-08T00:32:37;20.10;60.50
66708;DHT22;53622;0.000;0.000;2023-01-08T00:35:07;20.10;60.40
66708;DHT22;53622;0.000;0.000;2023-01-08T00:37:36;20.10;60.30
66708;DHT22;53622;0.000;0.000;2023-01-08T00:40:07;20.10;60.40
66708;DHT22;53622;0.000;0.000;2023-01-08T00:42:36;20.10;60.20
66708;DHT22;53622;0.000;0.000;2023-01-08T00:45:08;20.10;60.20
66708;DHT22;53622;0.000;0.000;2023-01-08T00:47:37;20.10;60.30
66708;DHT22;53622;0.000;0.000;2023-01-08T00:50:08;20.10;60.30
66708;DHT22;53622;0.000;0.000;2023-01-08T00:52:37;20.00;60.40
66708;DHT22;53622;0.000;0.000;2023-01-08T00:55:07;20.00;60.30
66708;DHT22;53622;0.000;0.000;2023-01-08T00:57:38;20.00;60.50
66708;DHT22;53622;0.000;0.000;2023-01-08T01:00:12;20.00;60.50
66708;DHT22;53622;0.000;0.000;2023-01-08T01:02:42;20.00;60.50
66708;DHT22;53622;0.000;0.000;2023-01-08T01:05:12;20.00;60.50
66708;DHT22;53622;0.000;0.000;2023-01-08T01:07:43;19.90;60.50
66708;DHT22;53622;0.000;0.000;2023-01-08T01:10:14;19.90;60.40
66708;DHT22;53622;0.000;0.000;2023-01-08T01:12:44;20.00;60.50
66708;DHT22;53622;0.000;0.000;2023-01-08T01:15:16;20.00;60.50
66708;DHT22;53622;0.000;0.000;2023-01-08T01:17:46;19.90;60.40
66708;DHT22;53622;0.000;0.000;2023-01-08T01:20:15;19.90;60.40
66708;DHT22;53622;0.000;0.000;2023-01-08T01:22:45;19.90;60.40
66708;DHT22;53622;0.000;0.000;2023-01-08T01:25:14;19.90;60.50
66708;DHT22;53622;0.000;0.000;2023-01-08T01:27:43;19.90;60.40
66708;DHT22;53622;0.000;0.000;2023-01-08T01:30:14;19.90;60.40
66708;DHT22;53622;0.000;0.000;2023-01-08T01:32:43;19.90;60.40
66708;DHT22;53622;0.000;0.000;2023-01-08T01:35:12;19.90;60.40
66708;DHT22;53622;0.000;0.000;2023-01-08T01:37:42;19.90;60.40
66708;DHT22;53622;0.000;0.000;2023-01-08T01:40:11;19.80;60.30
66708;DHT22;53622;0.000;0.000;2023-01-08T01:42:41;19.80;60.30
66708;DHT22;53622;0.000;0.000;2023-01-08T01:45:18;19.80;60.30
66708;DHT22;53622;0.000;0.000;2023-01-08T01:47:53;19.80;60.30
66708;DHT22;53622;0.000;0.000;2023-01-08T01:50:27;19.80;60.40
66708;DHT22;53622;0.000;0.000;2023-01-08T01:53:00;19.80;60.30
66708;DHT22;53622;0.000;0.000;2023-01-08T01:55:30;19.70;60.30
66708;DHT22;53622;0.000;0.000;2023-01-08T01:58:04;19.70;60.30
66708;DHT22;53622;0.000;0.000;2023-01-08T02:00:36;19.70;60.30
66708;DHT22;53622;0.000;0.000;2023-01-08T02:03:05;19.70;60.30
66708;DHT22;53622;0.000;0.000;2023-01-08T02:05:44;19.70;60.30
66708;DHT22;53622;0.000;0.000;2023-01-08T02:08:19;19.70;60.30
66708;DHT22;53622;0.000;0.000;2023-01-08T02:10:53;19.70;60.30
66708;DHT22;53622;0.000;0.000;2023-01-08T02:13:26;19.70;60.30
66708;DHT22;53622;0.000;0.000;2023-01-08T02:16:02;19.70;60.30
66708;DHT22;53622;0.000;0.000;2023-01-08T02:18:38;19.70;60.30
66708;DHT22;53622;0.000;0.000;2023-01-08T02:21:12;19.70;60.30
66708;DHT22;53622;0.000;0.000;2023-01-08T02:23:47;19.70;60.30
66708;DHT22;53622;0.000;0.000;2023-01-08T02:26:24;19.70;60.30
66708;DHT22;53622;0.000;0.000;2023-01-08T02:29:05;19.70;60.40
66708;DHT22;53622;0.000;0.000;2023-01-08T02:31:37;19.60;60.30
66708;DHT22;53622;0.000;0.000;2023-01-08T02:34:08;19.60;60.40
66708;DHT22;53622;0.000;0.000;2023-01-08T02:36:39;19.60;60.30
66708;DHT22;53622;0.000;0.000;2023-01-08T02:39:24;19.60;60.30
66708;DHT22;53622;0.000;0.000;2023-01-08T02:42:10;19.60;60.30
66708;DHT22;53622;0.000;0.000;2023-01-08T02:44:55;19.60;60.30
66708;DHT22;53622;0.000;0.000;2023-01-08T02:47:30;19.60;60.30
66708;DHT22;53622;0.000;0.000;2023-01-08T02:50:13;19.60;60.30
66708;DHT22;53622;0.000;0.000;2023-01-08T02:52:49;19.60;60.40
66708;DHT22;53622;0.000;0.000;2023-01-08T02:55:22;19.50;60.30
66708;DHT22;53622;0.000;0.000;2023-01-08T02:57:54;19.50;61.00
66708;DHT22;53622;0.000;0.000;2023-01-08T03:00:24;19.50;60.30
66708;DHT22;53622;0.000;0.000;2023-01-08T03:03:00;19.50;60.20
66708;DHT22;53622;0.000;0.000;2023-01-08T03:05:32;19.50;60.30
66708;DHT22;53622;0.000;0.000;2023-01-08T03:08:02;19.50;60.20
66708;DHT22;53622;0.000;0.000;2023-01-08T03:10:32;19.50;60.30
66708;DHT22;53622;0.000;0.000;2023-01-08T03:13:06;19.50;60.30
66708;DHT22;53622;0.000;0.000;2023-01-08T03:15:48;19.50;60.20
66708;DHT22;53622;0.000;0.000;2023-01-08T03:18:20;19.50;61.00
66708;DHT22;53622;0.000;0.000;2023-01-08T03:20:52;19.40;60.20
66708;DHT22;53622;0.000;0.000;2023-01-08T03:23:22;19.40;60.30
66708;DHT22;53622;0.000;0.000;2023-01-08T03:25:52;19.40;60.20
66708;DHT22;53622;0.000;0.000;2023-01-08T03:28:26;19.40;60.30
66708;DHT22;53622;0.000;0.000;2023-01-08T03:30:57;19.40;60.30
66708;DHT22;53622;0.000;0.000;2023-01-08T03:33:29;19.40;60.30
66708;DHT22;53622;0.000;0.000;2023-01-08T03:36:01;19.40;60.30
66708;DHT22;53622;0.000;0.000;2023-01-08T03:38:34;19.40;60.30
66708;DHT22;53622;0.000;0.000;2023-01-08T03:41:07;19.40;60.30
66708;DHT22;53622;0.000;0.000;2023-01-08T03:43:40;19.40;60.30
66708;DHT22;53622;0.000;0.000;2023-01-08T03:46:12;19.40;60.30
66708;DHT22;53622;0.000;0.000;2023-01-08T03:48:43;19.40;60.30
66708;DHT22;53622;0.000;0.000;2023-01-08T03:51:13;19.30;60.30
66708;DHT22;53622;0.000;0.000;2023-01-08T03:53:42;19.30;60.30
66708;DHT22;53622;0.000;0.000;2023-01-08T03:56:12;19.30;60.30
66708;DHT22;53622;0.000;0.000;2023-01-08T03:58:43;19.30;60.30
66708;DHT22;53622;0.000;0.000;2023-01-08T04:01:12;19.30;60.30
66708;DHT22;53622;0.000;0.000;2023-01-08T04:03:41;19.30;60.30
66708;DHT22;53622;0.000;0.000;2023-01-08T04:06:10;19.30;60.30
66708;DHT22;53622;0.000;0.000;2023-01-08T04:08:40;19.30;60.30
66708;DHT22;53622;0.000;0.000;2023-01-08T04:11:09;19.30;60.30
66708;DHT22;53622;0.000;0.000;2023-01-08T04:13:38;19.30;60.20
66708;DHT22;53622;0.000;0.000;2023-01-08T04:16:09;19.30;60.20
66708;DHT22;53622;0.000;0.000;2023-01-08T04:18:38;19.30;60.20
66708;DHT22;53622;0.000;0.000;2023-01-08T04:21:07;19.30;60.20
66708;DHT22;53622;0.000;0.000;2023-01-08T04:23:37;19.30;60.30
66708;DHT22;53622;0.000;0.000;2023-01-08T04:26:07;19.30;60.30
66708;DHT22;53622;0.000;0.000;2023-01-08T04:28:36;19.30;60.20
66708;DHT22;53622;0.000;0.000;2023-01-08T04:31:06;19.30;60.30
66708;DHT22;53622;0.000;0.000;2023-01-08T04:33:36;19.30;60.30
66708;DHT22;53622;0.000;0.000;2023-01-08T04:36:06;19.20;60.20
66708;DHT22;53622;0.000;0.000;2023-01-08T04:38:36;19.20;60.20
66708;DHT22;53622;0.000;0.000;2023-01-08T04:41:05;19.20;60.10
66708;DHT22;53622;0.000;0.000;2023-01-08T04:43:34;19.20;60.20
66708;DHT22;53622;0.000;0.000;2023-01-08T04:46:04;19.20;60.20
66708;DHT22;53622;0.000;0.000;2023-01-08T04:48:36;19.20;60.20
66708;DHT22;53622;0.000;0.000;2023-01-08T04:51:05;19.20;60.30
66708;DHT22;53622;0.000;0.000;2023-01-08T04:53:35;19.20;60.20
66708;DHT22;53622;0.000;0.000;2023-01-08T04:56:07;19.20;61.00
66708;DHT22;53622;0.000;0.000;2023-01-08T04:58:37;19.20;60.20
66708;DHT22;53622;0.000;0.000;2023-01-08T05:01:11;19.10;60.20
66708;DHT22;53622;0.000;0.000;2023-01-08T05:03:42;19.20;60.20
66708;DHT22;53622;0.000;0.000;2023-01-08T05:06:11;19.20;60.30
66708;DHT22;53622;0.000;0.000;2023-01-08T05:08:41;19.10;60.20
66708;DHT22;53622;0.000;0.000;2023-01-08T05:11:10;19.10;60.30
66708;DHT22;53622;0.000;0.000;2023-01-08T05:13:39;19.10;60.30
66708;DHT22;53622;0.000;0.000;2023-01-08T05:16:09;19.10;60.20
66708;DHT22;53622;0.000;0.000;2023-01-08T05:18:38;19.10;60.30
66708;DHT22;53622;0.000;0.000;2023-01-08T05:21:09;19.10;60.20
66708;DHT22;53622;0.000;0.000;2023-01-08T05:23:39;19.10;60.20
66708;DHT22;53622;0.000;0.000;2023-01-08T05:26:09;19.10;60.20
66708;DHT22;53622;0.000;0.000;2023-01-08T05:28:38;19.10;60.10
66708;DHT22;53622;0.000;0.000;2023-01-08T05:31:07;19.10;60.10
66708;DHT22;53622;0.000;0.000;2023-01-08T05:33:38;19.10;60.10
66708;DHT22;53622;0.000;0.000;2023-01-08T05:36:11;19.10;60.10
66708;DHT22;53622;0.000;0.000;2023-01-08T05:38:40;19.10;60.20
66708;DHT22;53622;0.000;0.000;2023-01-08T05:41:10;19.10;60.50
66708;DHT22;53622;0.000;0.000;2023-01-08T05:43:40;19.20;60.10
66708;DHT22;53622;0.000;0.000;2023-01-08T05:46:09;19.40;59.90
66708;DHT22;53622;0.000;0.000;2023-01-08T05:48:38;19.60;59.50
66708;DHT22;53622;0.000;0.000;2023-01-08T05:51:09;19.80;59.10
66708;DHT22;53622;0.000;0.000;2023-01-08T05:53:38;19.90;58.80
66708;DHT22;53622;0.000;0.000;2023-01-08T05:56:09;20.00;58.60
66708;DHT22;53622;0.000;0.000;2023-01-08T05:58:39;20.10;58.40
66708;DHT22;53622;0.000;0.000;2023-01-08T06:01:10;20.20;58.40
66708;DHT22;53622;0.000;0.000;2023-01-08T06:03:40;20.20;58.30
66708;DHT22;53622;0.000;0.000;2023-01-08T06:06:11;20.30;58.20
66708;DHT22;53622;0.000;0.000;2023-01-08T06:08:42;20.30;58.10
66708;DHT22;53622;0.000;0.000;2023-01-08T06:11:12;20.30;58.10
66708;DHT22;53622;0.000;0.000;2023-01-08T06:13:42;20.30;58.20
66708;DHT22;53622;0.000;0.000;2023-01-08T06:16:12;20.30;58.30
66708;DHT22;53622;0.000;0.000;2023-01-08T06:18:41;20.30;58.60
66708;DHT22;53622;0.000;0.000;2023-01-08T06:21:12;20.30;58.80
66708;DHT22;53622;0.000;0.000;2023-01-08T06:23:41;20.40;58.90
66708;DHT22;53622;0.000;0.000;2023-01-08T06:26:11;20.40;59.20
66708;DHT22;53622;0.000;0.000;2023-01-08T06:28:40;20.40;59.30
66708;DHT22;53622;0.000;0.000;2023-01-08T06:31:09;20.50;59.70
66708;DHT22;53622;0.000;0.000;2023-01-08T06:33:39;20.50;60.00
66708;DHT22;53622;0.000;0.000;2023-01-08T06:36:08;20.60;60.60
66708;DHT22;53622;0.000;0.000;2023-01-08T06:38:39;20.60;60.90
66708;DHT22;53622;0.000;0.000;2023-01-08T06:41:09;20.60;60.70
66708;DHT22;53622;0.000;0.000;2023-01-08T06:43:39;20.70;60.50
66708;DHT22;53622;0.000;0.000;2023-01-08T06:46:09;20.70;60.30
66708;DHT22;53622;0.000;0.000;2023-01-08T06:48:38;20.70;60.10
66708;DHT22;53622;0.000;0.000;2023-01-08T06:51:07;20.80;60.20
66708;DHT22;53622;0.000;0.000;2023-01-08T06:53:38;20.80;60.20
66708;DHT22;53622;0.000;0.000;2023-01-08T06:56:08;20.80;60.00
66708;DHT22;53622;0.000;0.000;2023-01-08T06:58:38;20.80;59.90
66708;DHT22;53622;0.000;0.000;2023-01-08T07:01:12;20.80;59.80
66708;DHT22;53622;0.000;0.000;2023-01-08T07:03:42;20.80;59.70
66708;DHT22;53622;0.000;0.000;2023-01-08T07:06:13;20.90;59.70
66708;DHT22;53622;0.000;0.000;2023-01-08T07:08:45;20.90;59.60
66708;DHT22;53622;0.000;0.000;2023-01-08T07:11:15;20.90;59.50
66708;DHT22;53622;0.000;0.000;2023-01-08T07:13:44;20.90;59.40
66708;DHT22;53622;0.000;0.000;2023-01-08T07:16:14;20.80;59.50
66708;DHT22;53622;0.000;0.000;2023-01-08T07:18:45;20.90;59.60
66708;DHT22;53622;0.000;0.000;2023-01-08T07:21:15;20.90;59.70
66708;DHT22;53622;0.000;0.000;2023-01-08T07:23:47;20.90;59.70
66708;DHT22;53622;0.000;0.000;2023-01-08T07:26:17;20.90;59.70
66708;DHT22;53622;0.000;0.000;2023-01-08T07:28:47;20.90;59.70
66708;DHT22;53622;0.000;0.000;2023-01-08T07:31:17;20.90;59.70
66708;DHT22;53622;0.000;0.000;2023-01-08T07:33:47;20.90;59.90
66708;DHT22;53622;0.000;0.000;2023-01-08T07:36:17;20.90;59.60
66708;DHT22;53622;0.000;0.000;2023-01-08T07:38:50;20.90;59.70
66708;DHT22;53622;0.000;0.000;2023-01-08T07:41:20;20.90;59.70
66708;DHT22;53622;0.000;0.000;2023-01-08T07:43:50;20.90;59.60
66708;DHT22;53622;0.000;0.000;2023-01-08T07:46:20;20.90;59.40
66708;DHT22;53622;0.000;0.000;2023-01-08T07:48:51;21.00;59.50
66708;DHT22;53622;0.000;0.000;2023-01-08T07:51:20;21.00;59.50
66708;DHT22;53622;0.000;0.000;2023-01-08T07:53:52;21.00;59.50
66708;DHT22;53622;0.000;0.000;2023-01-08T07:56:23;21.10;59.40
66708;DHT22;53622;0.000;0.000;2023-01-08T07:58:53;21.10;59.30
66708;DHT22;53622;0.000;0.000;2023-01-08T08:01:23;21.10;59.10
66708;DHT22;53622;0.000;0.000;2023-01-08T08:03:53;21.20;59.10
66708;DHT22;53622;0.000;0.000;2023-01-08T08:06:22;21.20;59.10
66708;DHT22;53622;0.000;0.000;2023-01-08T08:08:53;21.20;59.00
66708;DHT22;53622;0.000;0.000;2023-01-08T08:11:24;21.20;58.90
66708;DHT22;53622;0.000;0.000;2023-01-08T08:13:54;21.30;58.90
66708;DHT22;53622;0.000;0.000;2023-01-08T08:16:23;21.30;58.80
66708;DHT22;53622;0.000;0.000;2023-01-08T08:18:52;21.30;58.80
66708;DHT22;53622;0.000;0.000;2023-01-08T08:21:22;21.30;58.80
66708;DHT22;53622;0.000;0.000;2023-01-08T08:23:53;21.30;58.80
66708;DHT22;53622;0.000;0.000;2023-01-08T08:26:23;21.30;58.90
66708;DHT22;53622;0.000;0.000;2023-01-08T08:28:52;21.30;58.70
66708;DHT22;53622;0.000;0.000;2023-01-08T08:31:22;21.40;58.60
66708;DHT22;53622;0.000;0.000;2023-01-08T08:33:51;21.40;58.50
66708;DHT22;53622;0.000;0.000;2023-01-08T08:36:27;21.40;58.40
66708;DHT22;53622;0.000;0.000;2023-01-08T08:38:58;21.50;58.40
66708;DHT22;53622;0.000;0.000;2023-01-08T08:41:27;21.50;58.30
66708;DHT22;53622;0.000;0.000;2023-01-08T08:43:57;21.50;58.30
66708;DHT22;53622;0.000;0.000;2023-01-08T08:46:28;21.50;58.20
66708;DHT22;53622;0.000;0.000;2023-01-08T08:48:57;21.50;58.20
66708;DHT22;53622;0.000;0.000;2023-01-08T08:51:27;21.50;58.10
66708;DHT22;53622;0.000;0.000;2023-01-08T08:53:58;21.50;58.00
66708;DHT22;53622;0.000;0.000;2023-01-08T08:56:27;21.50;58.00
66708;DHT22;53622;0.000;0.000;2023-01-08T08:58:57;21.60;58.00
66708;DHT22;53622;0.000;0.000;2023-01-08T09:01:28;21.60;58.00
66708;DHT22;53622;0.000;0.000;2023-01-08T09:03:58;21.60;58.00
66708;DHT22;53622;0.000;0.000;2023-01-08T09:06:28;21.60;58.30
66708;DHT22;53622;0.000;0.000;2023-01-08T09:09:00;21.60;58.40
66708;DHT22;53622;0.000;0.000;2023-01-08T09:11:30;21.60;58.50
66708;DHT22;53622;0.000;0.000;2023-01-08T09:14:00;21.60;58.60
66708;DHT22;53622;0.000;0.000;2023-01-08T09:16:30;21.60;58.40
66708;DHT22;53622;0.000;0.000;2023-01-08T09:19:00;21.70;58.30
66708;DHT22;53622;0.000;0.000;2023-01-08T09:21:30;21.70;58.30
66708;DHT22;53622;0.000;0.000;2023-01-08T09:24:01;21.70;58.30
66708;DHT22;53622;0.000;0.000;2023-01-08T09:26:31;21.70;58.30
66708;DHT22;53622;0.000;0.000;2023-01-08T09:29:00;21.70;58.20
66708;DHT22;53622;0.000;0.000;2023-01-08T09:31:30;21.70;58.30
66708;DHT22;53622;0.000;0.000;2023-01-08T09:33:59;21.80;58.10
66708;DHT22;53622;0.000;0.000;2023-01-08T09:36:29;21.80;58.00
66708;DHT22;53622;0.000;0.000;2023-01-08T09:39:01;21.80;58.00
66708;DHT22;53622;0.000;0.000;2023-01-08T09:41:32;21.80;57.80
66708;DHT22;53622;0.000;0.000;2023-01-08T09:44:05;21.80;57.70
66708;DHT22;53622;0.000;0.000;2023-01-08T09:46:36;21.80;57.70
66708;DHT22;53622;0.000;0.000;2023-01-08T09:49:13;21.80;57.70
66708;DHT22;53622;0.000;0.000;2023-01-08T09:51:43;21.80;57.60
66708;DHT22;53622;0.000;0.000;2023-01-08T09:54:16;21.80;57.60
66708;DHT22;53622;0.000;0.000;2023-01-08T09:56:45;21.80;57.60
66708;DHT22;53622;0.000;0.000;2023-01-08T09:59:16;21.90;57.60
66708;DHT22;53622;0.000;0.000;2023-01-08T10:01:46;21.90;57.50
66708;DHT22;53622;0.000;0.000;2023-01-08T10:04:18;21.90;57.60
66708;DHT22;53622;0.000;0.000;2023-01-08T10:06:50;22.00;57.60
66708;DHT22;53622;0.000;0.000;2023-01-08T10:09:24;22.00;57.20
66708;DHT22;53622;0.000;0.000;2023-01-08T10:11:57;21.90;57.00
66708;DHT22;53622;0.000;0.000;2023-01-08T10:14:30;21.70;57.30
66708;DHT22;53622;0.000;0.000;2023-01-08T10:17:02;21.60;57.70
66708;DHT22;53622;0.000;0.000;2023-01-08T10:19:38;21.50;58.00
66708;DHT22;53622;0.000;0.000;2023-01-08T10:22:10;21.40;58.20
66708;DHT22;53622;0.000;0.000;2023-01-08T10:24:42;21.30;58.40
66708;DHT22;53622;0.000;0.000;2023-01-08T10:27:13;21.20;58.50
66708;DHT22;53622;0.000;0.000;2023-01-08T10:29:44;21.20;58.70
66708;DHT22;53622;0.000;0.000;2023-01-08T10:32:15;21.10;58.80
66708;DHT22;53622;0.000;0.000;2023-01-08T10:34:46;21.10;58.90
66708;DHT22;53622;0.000;0.000;2023-01-08T10:37:23;21.00;58.90
66708;DHT22;53622;0.000;0.000;2023-01-08T10:39:59;21.00;59.00
66708;DHT22;53622;0.000;0.000;2023-01-08T10:42:33;21.00;59.10
66708;DHT22;53622;0.000;0.000;2023-01-08T10:45:05;20.90;59.10
66708;DHT22;53622;0.000;0.000;2023-01-08T10:47:39;20.90;59.20
66708;DHT22;53622;0.000;0.000;2023-01-08T10:50:18;20.90;59.20
66708;DHT22;53622;0.000;0.000;2023-01-08T10:52:54;20.90;59.30
66708;DHT22;53622;0.000;0.000;2023-01-08T10:55:27;20.90;59.50
66708;DHT22;53622;0.000;0.000;2023-01-08T10:57:58;20.80;59.40
66708;DHT22;53622;0.000;0.000;2023-01-08T11:00:29;20.90;59.70
66708;DHT22;53622;0.000;0.000;2023-01-08T11:03:01;20.80;60.10
66708;DHT22;53622;0.000;0.000;2023-01-08T11:05:32;20.80;60.60
66708;DHT22;53622;0.000;0.000;2023-01-08T11:08:04;20.80;60.50
66708;DHT22;53622;0.000;0.000;2023-01-08T11:10:36;20.80;60.70
66708;DHT22;53622;0.000;0.000;2023-01-08T11:13:06;20.70;60.90
66708;DHT22;53622;0.000;0.000;2023-01-08T11:15:38;20.70;60.60
66708;DHT22;53622;0.000;0.000;2023-01-08T11:18:26;20.70;61.10
66708;DHT22;53622;0.000;0.000;2023-01-08T11:21:07;20.70;61.60
66708;DHT22;53622;0.000;0.000;2023-01-08T11:23:37;20.70;61.40
66708;DHT22;53622;0.000;0.000;2023-01-08T11:26:12;20.70;61.60
66708;DHT22;53622;0.000;0.000;2023-01-08T11:28:50;20.70;62.40
66708;DHT22;53622;0.000;0.000;2023-01-08T11:31:24;20.70;61.60
66708;DHT22;53622;0.000;0.000;2023-01-08T11:34:04;20.70;61.70
66708;DHT22;53622;0.000;0.000;2023-01-08T11:36:41;20.70;61.80
66708;DHT22;53622;0.000;0.000;2023-01-08T11:39:12;20.70;61.70
66708;DHT22;53622;0.000;0.000;2023-01-08T11:42:04;20.60;62.00
66708;DHT22;53622;0.000;0.000;2023-01-08T11:44:41;20.60;62.30
66708;DHT22;53622;0.000;0.000;2023-01-08T11:47:18;20.60;62.40
66708;DHT22;53622;0.000;0.000;2023-01-08T11:50:09;20.60;62.60
66708;DHT22;53622;0.000;0.000;2023-01-08T11:52:47;20.60;62.40
66708;DHT22;53622;0.000;0.000;2023-01-08T11:55:35;20.60;62.30
66708;DHT22;53622;0.000;0.000;2023-01-08T11:58:23;20.60;62.40
66708;DHT22;53622;0.000;0.000;2023-01-08T12:01:00;20.50;62.40
66708;DHT22;53622;0.000;0.000;2023-01-08T12:03:35;20.50;62.30
66708;DHT22;53622;0.000;0.000;2023-01-08T12:06:18;20.50;62.10
66708;DHT22;53622;0.000;0.000;2023-01-08T12:08:57;20.50;62.10
66708;DHT22;53622;0.000;0.000;2023-01-08T12:11:30;20.50;62.10
66708;DHT22;53622;0.000;0.000;2023-01-08T12:14:21;20.40;62.40
66708;DHT22;53622;0.000;0.000;2023-01-08T12:17:16;20.50;62.50
66708;DHT22;53622;0.000;0.000;2023-01-08T12:20:02;20.50;62.20
66708;DHT22;53622;0.000;0.000;2023-01-08T12:22:42;20.50;62.10
66708;DHT22;53622;0.000;0.000;2023-01-08T12:28:28;20.50;61.70
66708;DHT22;53622;0.000;0.000;2023-01-08T12:31:16;20.50;61.70
66708;DHT22;53622;0.000;0.000;2023-01-08T12:33:54;20.50;61.60
66708;DHT22;53622;0.000;0.000;2023-01-08T12:36:28;20.50;61.70
66708;DHT22;53622;0.000;0.000;2023-01-08T12:39:04;20.50;61.70
66708;DHT22;53622;0.000;0.000;2023-01-08T12:41:39;20.50;61.50
66708;DHT22;53622;0.000;0.000;2023-01-08T12:44:11;20.50;61.40
66708;DHT22;53622;0.000;0.000;2023-01-08T12:46:46;20.50;61.30
66708;DHT22;53622;0.000;0.000;2023-01-08T12:49:34;20.50;61.20
66708;DHT22;53622;0.000;0.000;2023-01-08T12:52:13;20.50;61.20
66708;DHT22;53622;0.000;0.000;2023-01-08T12:54:49;20.40;61.20
66708;DHT22;53622;0.000;0.000;2023-01-08T12:57:26;20.40;61.30
66708;DHT22;53622;0.000;0.000;2023-01-08T13:00:03;20.40;61.20
66708;DHT22;53622;0.000;0.000;2023-01-08T13:02:42;20.40;61.10
66708;DHT22;53622;0.000;0.000;2023-01-08T13:05:28;20.40;61.10
66708;DHT22;53622;0.000;0.000;2023-01-08T13:08:00;20.40;61.10
66708;DHT22;53622;0.000;0.000;2023-01-08T13:10:35;20.30;61.10
66708;DHT22;53622;0.000;0.000;2023-01-08T13:13:07;20.30;61.30
66708;DHT22;53622;0.000;0.000;2023-01-08T13:15:48;20.30;61.00
66708;DHT22;53622;0.000;0.000;2023-01-08T13:18:20;20.30;61.00
66708;DHT22;53622;0.000;0.000;2023-01-08T13:20:55;20.30;61.00
66708;DHT22;53622;0.000;0.000;2023-01-08T13:23:27;20.30;61.00
66708;DHT22;53622;0.000;0.000;2023-01-08T13:25:58;20.30;61.10
66708;DHT22;53622;0.000;0.000;2023-01-08T13:28:37;20.30;61.00
66708;DHT22;53622;0.000;0.000;2023-01-08T13:31:09;20.30;61.00
66708;DHT22;53622;0.000;0.000;2023-01-08T13:33:55;20.30;61.00
66708;DHT22;53622;0.000;0.000;2023-01-08T13:36:26;20.30;60.90
66708;DHT22;53622;0.000;0.000;2023-01-08T13:39:17;20.30;61.00
66708;DHT22;53622;0.000;0.000;2023-01-08T13:41:58;20.30;60.90
66708;DHT22;53622;0.000;0.000;2023-01-08T13:44:29;20.30;60.90
66708;DHT22;53622;0.000;0.000;2023-01-08T13:47:03;20.30;60.90
66708;DHT22;53622;0.000;0.000;2023-01-08T13:49:41;20.30;60.90
66708;DHT22;53622;0.000;0.000;2023-01-08T13:52:26;20.30;60.90
66708;DHT22;53622;0.000;0.000;2023-01-08T13:54:59;20.30;60.90
66708;DHT22;53622;0.000;0.000;2023-01-08T13:57:36;20.30;60.80
66708;DHT22;53622;0.000;0.000;2023-01-08T14:00:08;20.30;60.80
66708;DHT22;53622;0.000;0.000;2023-01-08T14:02:43;20.30;60.80
66708;DHT22;53622;0.000;0.000;2023-01-08T14:05:24;20.30;61.10
66708;DHT22;53622;0.000;0.000;2023-01-08T14:07:55;20.30;61.00
66708;DHT22;53622;0.000;0.000;2023-01-08T14:10:26;20.30;61.00
66708;DHT22;53622;0.000;0.000;2023-01-08T14:13:05;20.30;61.10
66708;DHT22;53622;0.000;0.000;2023-01-08T14:15:37;20.20;61.30
66708;DHT22;53622;0.000;0.000;2023-01-08T14:18:09;20.20;61.20
66708;DHT22;53622;0.000;0.000;2023-01-08T14:20:43;20.20;61.30
66708;DHT22;53622;0.000;0.000;2023-01-08T14:23:17;20.20;61.40
66708;DHT22;53622;0.000;0.000;2023-01-08T14:25:48;20.20;61.20
66708;DHT22;53622;0.000;0.000;2023-01-08T14:28:20;20.20;61.20
66708;DHT22;53622;0.000;0.000;2023-01-08T14:30:51;20.20;61.40
66708;DHT22;53622;0.000;0.000;2023-01-08T14:33:23;20.20;61.80
66708;DHT22;53622;0.000;0.000;2023-01-08T14:35:56;20.20;62.00
66708;DHT22;53622;0.000;0.000;2023-01-08T14:38:26;20.20;62.50
66708;DHT22;53622;0.000;0.000;2023-01-08T14:41:01;20.10;62.60
66708;DHT22;53622;0.000;0.000;2023-01-08T14:43:32;20.10;62.60
66708;DHT22;53622;0.000;0.000;2023-01-08T14:46:04;20.10;62.50
66708;DHT22;53622;0.000;0.000;2023-01-08T14:48:42;20.20;62.60
66708;DHT22;53622;0.000;0.000;2023-01-08T14:51:14;20.20;62.40
66708;DHT22;53622;0.000;0.000;2023-01-08T14:53:50;20.20;62.60
66708;DHT22;53622;0.000;0.000;2023-01-08T14:56:24;20.10;62.70
66708;DHT22;53622;0.000;0.000;2023-01-08T14:58:55;20.10;62.60
66708;DHT22;53622;0.000;0.000;2023-01-08T15:01:27;20.10;62.70
66708;DHT22;53622;0.000;0.000;2023-01-08T15:04:05;20.10;62.40
66708;DHT22;53622;0.000;0.000;2023-01-08T15:06:38;20.10;62.20
66708;DHT22;53622;0.000;0.000;2023-01-08T15:09:20;20.10;62.50
66708;DHT22;53622;0.000;0.000;2023-01-08T15:11:52;20.10;62.70
66708;DHT22;53622;0.000;0.000;2023-01-08T15:14:23;20.10;62.80
66708;DHT22;53622;0.000;0.000;2023-01-08T15:16:54;20.20;62.70
66708;DHT22;53622;0.000;0.000;2023-01-08T15:19:26;20.10;63.30
66708;DHT22;53622;0.000;0.000;2023-01-08T15:21:59;20.10;63.30
66708;DHT22;53622;0.000;0.000;2023-01-08T15:24:31;20.10;62.90
66708;DHT22;53622;0.000;0.000;2023-01-08T15:27:01;20.10;62.80
66708;DHT22;53622;0.000;0.000;2023-01-08T15:29:39;20.10;62.60
66708;DHT22;53622;0.000;0.000;2023-01-08T15:32:10;20.10;62.60
66708;DHT22;53622;0.000;0.000;2023-01-08T15:34:40;20.10;62.70
66708;DHT22;53622;0.000;0.000;2023-01-08T15:37:12;20.10;62.60
66708;DHT22;53622;0.000;0.000;2023-01-08T15:39:42;20.10;62.60
66708;DHT22;53622;0.000;0.000;2023-01-08T15:42:17;20.10;62.60
66708;DHT22;53622;0.000;0.000;2023-01-08T15:45:09;20.10;62.60
66708;DHT22;53622;0.000;0.000;2023-01-08T15:47:40;20.10;62.60
66708;DHT22;53622;0.000;0.000;2023-01-08T15:50:10;20.10;62.70
66708;DHT22;53622;0.000;0.000;2023-01-08T15:52:42;20.10;62.70
66708;DHT22;53622;0.000;0.000;2023-01-08T15:55:15;20.00;62.60
66708;DHT22;53622;0.000;0.000;2023-01-08T15:57:45;20.00;62.70
66708;DHT22;53622;0.000;0.000;2023-01-08T16:00:17;20.00;62.50
66708;DHT22;53622;0.000;0.000;2023-01-08T16:02:48;20.00;62.50
66708;DHT22;53622;0.000;0.000;2023-01-08T16:05:19;20.00;62.50
66708;DHT22;53622;0.000;0.000;2023-01-08T16:07:50;20.00;62.40
66708;DHT22;53622;0.000;0.000;2023-01-08T16:10:19;20.00;62.30
66708;DHT22;53622;0.000;0.000;2023-01-08T16:12:49;20.00;62.30
66708;DHT22;53622;0.000;0.000;2023-01-08T16:15:18;20.00;62.30
66708;DHT22;53622;0.000;0.000;2023-01-08T16:17:47;20.00;62.30
66708;DHT22;53622;0.000;0.000;2023-01-08T16:20:18;20.00;62.20